createdAt,value
2023-04-16T00:02:34.414Z,86.47
2023-04-16T00:05:37.327Z,86.80
2023-04-16T00:08:41.196Z,87.10
2023-04-16T00:11:43.860Z,86.48
2023-04-16T00:14:47.200Z,85.74
2023-04-16T00:17:50.101Z,85.36
2023-04-16T00:20:53.617Z,85.40
2023-04-16T00:23:56.411Z,85.40
2023-04-16T00:26:59.268Z,84.68
2023-04-16T00:30:03.720Z,84.50
2023-04-16T00:33:06.848Z,84.57
2023-04-16T00:36:10.380Z,84.85
2023-04-16T00:39:13.138Z,84.59
2023-04-16T00:42:16.230Z,84.98
2023-04-16T00:45:19.123Z,84.80
2023-04-16T00:48:22.288Z,85.40
2023-04-16T00:51:25.022Z,86.68
2023-04-16T00:54:28.378Z,86.45
2023-04-16T00:57:31.108Z,86.44
2023-04-16T01:00:34.324Z,86.15
2023-04-16T01:03:39.663Z,85.68
2023-04-16T01:06:42.511Z,86.07
2023-04-16T01:09:45.218Z,86.31
2023-04-16T01:12:48.074Z,85.37
2023-04-16T01:15:51.087Z,84.95
2023-04-16T01:18:53.816Z,85.78
2023-04-16T01:21:57.606Z,86.28
2023-04-16T01:25:01.026Z,86.58
2023-04-16T01:28:03.890Z,86.21
2023-04-16T01:31:06.826Z,86.69
2023-04-16T01:34:29.117Z,86.10
2023-04-16T01:37:32.100Z,86.03
2023-04-16T01:40:35.855Z,85.97
2023-04-16T01:43:40.287Z,85.66
2023-04-16T01:46:44.276Z,85.53
2023-04-16T01:49:48.393Z,85.67
2023-04-16T01:52:51.385Z,85.61
2023-04-16T01:55:54.064Z,85.58
2023-04-16T01:58:56.785Z,85.90
2023-04-16T02:02:16.421Z,85.88
2023-04-16T02:05:19.501Z,85.97
2023-04-16T02:08:23.510Z,86.28
2023-04-16T02:11:26.645Z,86.98
2023-04-16T02:14:31.050Z,86.84
2023-04-16T02:17:33.796Z,86.97
2023-04-16T02:20:48.170Z,87.19
2023-04-16T02:23:52.008Z,86.82
2023-04-16T02:27:00.398Z,86.57
2023-04-16T02:30:04.569Z,86.37
2023-04-16T02:33:11.561Z,85.93
2023-04-16T02:36:17.184Z,85.44
2023-04-16T02:39:20.207Z,85.73
2023-04-16T02:42:23.498Z,86.01
2023-04-16T02:45:26.271Z,86.37
2023-04-16T02:48:29.128Z,86.36
2023-04-16T02:51:33.418Z,85.82
2023-04-16T02:54:36.297Z,85.50
2023-04-16T02:57:39.133Z,85.03
2023-04-16T03:00:41.851Z,84.58
2023-04-16T03:03:44.710Z,84.63
2023-04-16T03:06:47.540Z,84.62
2023-04-16T03:09:50.429Z,84.82
2023-04-16T03:12:53.192Z,84.91
2023-04-16T03:15:55.944Z,85.42
2023-04-16T03:18:58.791Z,85.52
2023-04-16T03:22:01.667Z,85.48
2023-04-16T03:25:05.177Z,85.15
2023-04-16T03:28:07.875Z,85.25
2023-04-16T03:31:10.957Z,84.44
2023-04-16T03:34:14.164Z,83.95
2023-04-16T03:37:17.881Z,83.79
2023-04-16T03:40:20.731Z,83.99
2023-04-16T03:43:23.744Z,84.00
2023-04-16T03:46:26.982Z,84.07
2023-04-16T03:49:30.545Z,84.21
2023-04-16T03:52:34.426Z,83.72
2023-04-16T03:55:38.039Z,83.65
2023-04-16T03:58:40.894Z,83.39
2023-04-16T04:01:44.926Z,82.68
2023-04-16T04:04:48.165Z,82.98
2023-04-16T04:07:51.416Z,82.87
2023-04-16T04:10:54.697Z,82.82
2023-04-16T04:13:59.870Z,82.76
2023-04-16T04:17:02.606Z,82.89
2023-04-16T04:20:07.190Z,82.95
2023-04-16T04:23:10.081Z,82.77
2023-04-16T04:26:12.841Z,83.21
2023-04-16T04:29:16.615Z,83.08
2023-04-16T04:32:19.343Z,83.30
2023-04-16T04:35:25.025Z,83.59
2023-04-16T04:38:28.734Z,83.42
2023-04-16T04:41:31.729Z,83.94
2023-04-16T04:44:35.664Z,83.87
2023-04-16T04:47:38.449Z,84.34
2023-04-16T04:50:42.541Z,83.97
2023-04-16T04:53:45.302Z,84.26
2023-04-16T04:56:48.096Z,83.92
2023-04-16T04:59:51.004Z,84.03
2023-04-16T05:02:53.959Z,83.96
2023-04-16T05:05:56.789Z,84.05
2023-04-16T05:08:59.526Z,83.82
2023-04-16T05:12:02.845Z,84.23
2023-04-16T05:15:06.114Z,83.74
2023-04-16T05:18:08.905Z,84.17
2023-04-16T05:21:12.460Z,83.88
2023-04-16T05:24:15.252Z,83.29
2023-04-16T05:27:18.040Z,82.66
2023-04-16T05:30:20.816Z,82.67
2023-04-16T05:33:23.544Z,82.53
2023-04-16T05:36:26.273Z,82.70
2023-04-16T05:39:29.016Z,82.88
2023-04-16T05:42:32.312Z,83.11
2023-04-16T05:45:39.740Z,83.32
2023-04-16T05:48:42.950Z,83.07
2023-04-16T05:51:45.796Z,82.67
2023-04-16T05:54:48.456Z,82.58
2023-04-16T05:57:51.131Z,82.97
2023-04-16T06:00:53.879Z,82.13
2023-04-16T06:03:56.810Z,82.42
2023-04-16T06:06:59.661Z,82.58
2023-04-16T06:10:02.493Z,81.69
2023-04-16T06:13:05.236Z,82.07
2023-04-16T06:16:08.085Z,81.90
2023-04-16T06:19:11.146Z,81.91
2023-04-16T06:22:14.220Z,81.69
2023-04-16T06:25:18.206Z,82.30
2023-04-16T06:28:21.201Z,82.51
2023-04-16T06:31:24.879Z,81.98
2023-04-16T06:34:28.648Z,82.29
2023-04-16T06:37:31.478Z,81.37
2023-04-16T06:40:34.391Z,81.85
2023-04-16T06:43:37.247Z,79.97
2023-04-16T06:46:39.987Z,80.17
2023-04-16T06:49:42.810Z,79.24
2023-04-16T06:52:46.004Z,79.42
2023-04-16T06:55:48.690Z,78.91
2023-04-16T06:58:51.597Z,77.56
2023-04-16T07:01:55.919Z,78.56
2023-04-16T07:04:59.080Z,78.48
2023-04-16T07:08:01.978Z,79.57
2023-04-16T07:11:05.180Z,78.27
2023-04-16T07:14:08.394Z,77.69
2023-04-16T07:17:11.340Z,77.64
2023-04-16T07:20:14.244Z,75.71
2023-04-16T07:23:17.091Z,75.72
2023-04-16T07:26:19.843Z,73.89
2023-04-16T07:29:22.898Z,73.41
2023-04-16T07:32:26.375Z,71.83
2023-04-16T07:35:29.391Z,71.47
2023-04-16T07:38:32.594Z,71.34
2023-04-16T07:41:35.991Z,72.49
2023-04-16T07:44:39.643Z,69.79
2023-04-16T07:47:42.503Z,70.99
2023-04-16T07:50:45.405Z,69.61
2023-04-16T07:53:48.154Z,69.60
2023-04-16T07:56:50.920Z,69.44
2023-04-16T07:59:53.703Z,69.51
2023-04-16T08:02:56.798Z,69.65
2023-04-16T08:05:59.785Z,66.81
2023-04-16T08:09:03.076Z,67.05
2023-04-16T08:12:06.346Z,65.21
2023-04-16T08:15:09.524Z,65.94
2023-04-16T08:18:15.738Z,68.13
2023-04-16T08:21:18.652Z,68.25
2023-04-16T08:24:21.489Z,68.46
2023-04-16T08:27:24.183Z,68.34
2023-04-16T08:30:27.325Z,68.78
2023-04-16T08:33:30.746Z,66.56
2023-04-16T08:36:33.529Z,67.01
2023-04-16T08:39:36.363Z,68.16
2023-04-16T08:42:56.449Z,67.15
2023-04-16T08:45:59.546Z,67.15
2023-04-16T08:49:05.309Z,67.34
2023-04-16T08:52:14.658Z,65.90
2023-04-16T08:55:23.040Z,66.12
2023-04-16T08:58:29.748Z,69.06
2023-04-16T09:01:36.405Z,67.48
2023-04-16T09:04:40.285Z,67.84
2023-04-16T09:07:45.772Z,65.50
2023-04-16T09:10:49.186Z,67.59
2023-04-16T09:13:52.701Z,67.97
2023-04-16T09:16:56.275Z,67.21
2023-04-16T09:19:59.293Z,69.58
2023-04-16T09:23:02.087Z,70.79
2023-04-16T09:26:05.610Z,70.67
2023-04-16T09:29:09.967Z,70.83
2023-04-16T09:32:13.012Z,71.19
2023-04-16T09:35:16.770Z,69.72
2023-04-16T09:38:20.890Z,66.13
2023-04-16T09:41:28.637Z,68.33
2023-04-16T09:44:38.342Z,65.88
2023-04-16T09:47:43.226Z,65.16
2023-04-16T09:50:51.873Z,64.91
2023-04-16T09:53:57.256Z,63.61
2023-04-16T09:57:01.225Z,63.94
2023-04-16T10:00:06.749Z,62.49
2023-04-16T10:03:09.588Z,64.20
2023-04-16T10:06:20.875Z,62.56
2023-04-16T10:09:23.531Z,64.67
2023-04-16T10:12:27.388Z,62.52
2023-04-16T10:15:30.749Z,60.75
2023-04-16T10:18:38.962Z,60.91
2023-04-16T10:21:42.333Z,59.73
2023-04-16T10:24:47.218Z,59.11
2023-04-16T10:27:51.285Z,63.54
2023-04-16T10:30:57.054Z,61.16
2023-04-16T10:34:00.814Z,61.52
2023-04-16T10:37:03.497Z,63.30
2023-04-16T10:40:23.876Z,57.54
2023-04-16T10:43:27.144Z,61.69
2023-04-16T10:46:40.868Z,60.93
2023-04-16T10:49:44.121Z,59.76
2023-04-16T10:52:47.279Z,58.59
2023-04-16T10:56:05.719Z,59.18
2023-04-16T10:59:11.177Z,58.16
2023-04-16T11:02:16.609Z,57.47
2023-04-16T11:05:22.994Z,57.84
2023-04-16T11:08:26.377Z,62.22
2023-04-16T11:11:41.096Z,58.21
2023-04-16T11:14:48.427Z,61.81
2023-04-16T11:17:52.223Z,59.63
2023-04-16T11:20:55.223Z,61.26
2023-04-16T11:23:58.277Z,63.99
2023-04-16T11:27:01.808Z,62.66
2023-04-16T11:30:07.503Z,63.92
2023-04-16T11:33:11.760Z,64.42
2023-04-16T11:36:14.708Z,59.87
2023-04-16T11:39:17.965Z,59.46
2023-04-16T11:42:22.863Z,59.75
2023-04-16T11:45:26.018Z,58.47
2023-04-16T11:48:52.272Z,59.28
2023-04-16T11:51:55.614Z,59.01
2023-04-16T11:54:59.884Z,59.58
2023-04-16T11:58:13.251Z,59.99
2023-04-16T12:01:21.525Z,59.22
2023-04-16T12:04:26.363Z,62.63
2023-04-16T12:07:29.107Z,62.78
2023-04-16T12:10:35.454Z,66.30
2023-04-16T12:13:40.346Z,65.04
2023-04-16T12:16:43.213Z,66.43
2023-04-16T12:19:52.929Z,68.16
2023-04-16T12:22:58.344Z,70.37
2023-04-16T12:26:10.748Z,71.15
2023-04-16T12:29:19.000Z,70.25
2023-04-16T12:32:23.453Z,70.77
2023-04-16T12:35:31.457Z,70.90
2023-04-16T12:38:34.245Z,69.75
2023-04-16T12:41:38.985Z,68.80
2023-04-16T12:44:41.677Z,69.94
2023-04-16T12:47:44.597Z,69.75
2023-04-16T12:50:47.455Z,70.16
2023-04-16T12:53:50.457Z,68.89
2023-04-16T12:56:53.280Z,70.80
2023-04-16T12:59:57.490Z,69.36
2023-04-16T13:03:00.557Z,70.60
2023-04-16T13:06:04.524Z,70.00
2023-04-16T13:09:07.693Z,69.33
2023-04-16T13:12:10.838Z,69.69
2023-04-16T13:15:13.733Z,69.59
2023-04-16T13:18:16.759Z,69.04
2023-04-16T13:21:19.678Z,69.86
2023-04-16T13:24:23.737Z,69.56
2023-04-16T13:27:26.769Z,68.91
2023-04-16T13:30:29.658Z,67.75
2023-04-16T13:33:32.643Z,67.90
2023-04-16T13:36:36.462Z,66.82
2023-04-16T13:39:39.271Z,65.45
2023-04-16T13:42:42.471Z,64.28
2023-04-16T13:45:46.230Z,65.27
2023-04-16T13:48:49.291Z,63.12
2023-04-16T13:51:53.749Z,63.27
2023-04-16T13:54:59.648Z,64.72
2023-04-16T13:58:04.055Z,63.90
2023-04-16T14:01:07.391Z,64.84
2023-04-16T14:04:11.897Z,63.05
2023-04-16T14:07:15.653Z,62.62
2023-04-16T14:10:18.756Z,62.19
2023-04-16T14:13:21.877Z,62.87
2023-04-16T14:16:24.941Z,64.11
2023-04-16T14:19:27.804Z,64.67
2023-04-16T14:22:30.746Z,62.06
2023-04-16T14:25:34.266Z,62.85
2023-04-16T14:28:37.298Z,61.25
2023-04-16T14:31:40.326Z,61.00
2023-04-16T14:34:43.377Z,62.25
2023-04-16T14:37:46.945Z,63.00
2023-04-16T14:40:49.854Z,61.72
2023-04-16T14:43:53.120Z,61.43
2023-04-16T14:46:56.002Z,59.42
2023-04-16T14:49:58.832Z,60.62
2023-04-16T14:53:01.836Z,61.39
2023-04-16T14:56:06.007Z,61.64
2023-04-16T14:59:08.970Z,62.34
2023-04-16T15:02:12.219Z,63.19
2023-04-16T15:05:15.342Z,62.75
2023-04-16T15:08:18.212Z,61.62
2023-04-16T15:11:21.008Z,60.57
2023-04-16T15:14:24.107Z,60.08
2023-04-16T15:17:26.911Z,60.71
2023-04-16T15:20:29.731Z,60.11
2023-04-16T15:23:32.579Z,61.43
2023-04-16T15:26:35.876Z,61.03
2023-04-16T15:29:38.913Z,59.72
2023-04-16T15:32:43.519Z,59.82
2023-04-16T15:35:46.567Z,60.72
2023-04-16T15:38:49.443Z,61.23
2023-04-16T15:44:58.387Z,61.84
2023-04-16T15:48:01.289Z,62.69
2023-04-16T15:51:04.210Z,61.80
2023-04-16T15:54:08.578Z,61.14
2023-04-16T15:57:11.366Z,61.56
2023-04-16T16:00:17.174Z,62.76
2023-04-16T16:03:21.699Z,61.91
2023-04-16T16:06:24.917Z,62.18
2023-04-16T16:09:28.098Z,62.18
2023-04-16T16:12:31.452Z,63.30
2023-04-16T16:15:34.357Z,62.85
2023-04-16T16:18:37.440Z,62.50
2023-04-16T16:21:41.067Z,62.45
2023-04-16T16:24:44.237Z,62.01
2023-04-16T16:27:47.436Z,62.04
2023-04-16T16:30:51.435Z,62.65
2023-04-16T16:33:54.581Z,63.66
2023-04-16T16:36:57.610Z,64.86
2023-04-16T16:40:00.804Z,65.49
2023-04-16T16:43:04.455Z,65.45
2023-04-16T16:46:07.692Z,66.24
2023-04-16T16:49:11.238Z,66.41
2023-04-16T16:52:14.513Z,67.01
2023-04-16T16:55:18.809Z,67.19
2023-04-16T16:58:21.999Z,67.65
2023-04-16T17:01:28.450Z,67.85
2023-04-16T17:04:31.353Z,68.84
2023-04-16T17:07:34.498Z,69.76
2023-04-16T17:10:37.849Z,71.21
2023-04-16T17:13:41.095Z,72.11
2023-04-16T17:16:46.607Z,72.79
2023-04-16T17:19:49.674Z,73.14
2023-04-16T17:22:52.897Z,73.65
2023-04-16T17:25:55.692Z,73.17
2023-04-16T17:28:59.484Z,76.38
2023-04-16T17:32:02.778Z,76.72
2023-04-16T17:35:07.065Z,77.89
2023-04-16T17:38:10.675Z,77.09
2023-04-16T17:41:13.761Z,75.21
2023-04-16T17:44:17.121Z,75.08
2023-04-16T17:47:20.249Z,75.32
2023-04-16T17:50:23.485Z,74.25
2023-04-16T17:53:26.464Z,75.56
2023-04-16T17:56:29.508Z,75.49
2023-04-16T17:59:33.302Z,75.46
2023-04-16T18:02:36.557Z,76.14
2023-04-16T18:05:40.987Z,76.69
2023-04-16T18:08:44.033Z,76.82
2023-04-16T18:11:47.290Z,76.96
2023-04-16T18:14:50.483Z,77.06
2023-04-16T18:17:54.462Z,78.33
2023-04-16T18:20:57.707Z,77.27
2023-04-16T18:24:03.556Z,77.33
2023-04-16T18:27:07.296Z,76.25
2023-04-16T18:30:20.169Z,75.61
2023-04-16T18:33:52.288Z,76.46
2023-04-16T18:36:52.502Z,76.18
2023-04-16T18:39:57.927Z,76.54
2023-04-16T18:43:01.204Z,76.03
2023-04-16T18:46:04.234Z,75.78
2023-04-16T18:49:07.642Z,75.75
2023-04-16T18:52:10.963Z,76.21
2023-04-16T18:55:14.066Z,76.80
2023-04-16T18:58:17.254Z,77.27
2023-04-16T19:01:20.618Z,76.77
2023-04-16T19:04:23.801Z,76.73
2023-04-16T19:07:27.859Z,76.59
2023-04-16T19:10:31.090Z,76.03
2023-04-16T19:13:34.223Z,76.27
2023-04-16T19:16:39.204Z,76.35
2023-04-16T19:19:42.680Z,76.37
2023-04-16T19:22:46.088Z,76.78
2023-04-16T19:25:49.372Z,77.50
2023-04-16T19:28:52.577Z,77.67
2023-04-16T19:31:55.946Z,78.50
2023-04-16T19:34:59.051Z,78.69
2023-04-16T19:38:02.065Z,78.80
2023-04-16T19:41:04.862Z,78.95
2023-04-16T19:44:08.384Z,80.21
2023-04-16T19:47:11.959Z,80.46
2023-04-16T19:50:16.078Z,81.15
2023-04-16T19:53:18.821Z,82.10
2023-04-16T19:56:22.022Z,82.25
2023-04-16T19:59:28.252Z,82.51
2023-04-16T20:02:31.461Z,82.79
2023-04-16T20:05:34.989Z,82.92
2023-04-16T20:08:38.040Z,82.67
2023-04-16T20:11:41.364Z,83.53
2023-04-16T20:14:45.000Z,83.14
2023-04-16T20:17:47.819Z,82.88
2023-04-16T20:20:50.723Z,82.95
2023-04-16T20:23:53.827Z,81.97
2023-04-16T20:26:56.795Z,82.35
2023-04-16T20:30:00.484Z,82.44
2023-04-16T20:33:04.055Z,82.37
2023-04-16T20:36:07.367Z,82.31
2023-04-16T20:39:11.264Z,81.88
2023-04-16T20:42:14.210Z,82.11
2023-04-16T20:45:17.039Z,82.48
2023-04-16T20:48:19.896Z,82.02
2023-04-16T20:51:22.692Z,81.69
2023-04-16T20:54:25.736Z,81.07
2023-04-16T20:57:29.802Z,81.28
2023-04-16T21:00:32.764Z,80.33
2023-04-16T21:03:35.931Z,80.35
2023-04-16T21:06:43.135Z,80.31
2023-04-16T21:09:45.989Z,80.36
2023-04-16T21:12:48.828Z,79.71
2023-04-16T21:15:51.759Z,79.33
2023-04-16T21:18:55.770Z,79.04
2023-04-16T21:21:58.802Z,79.03
2023-04-16T21:25:02.725Z,78.99
2023-04-16T21:28:05.617Z,78.39
2023-04-16T21:31:08.527Z,78.54
2023-04-16T21:34:11.219Z,77.95
2023-04-16T21:37:14.044Z,78.61
2023-04-16T21:40:16.892Z,78.48
2023-04-16T21:43:20.294Z,78.24
2023-04-16T21:46:23.206Z,78.16
2023-04-16T21:49:26.032Z,78.30
2023-04-16T21:52:28.845Z,77.75
2023-04-16T21:55:31.553Z,78.02
2023-04-16T21:58:34.321Z,77.93
2023-04-16T22:01:37.075Z,77.97
2023-04-16T22:04:40.152Z,78.03
2023-04-16T22:07:42.909Z,77.74
2023-04-16T22:10:45.829Z,77.79
2023-04-16T22:13:49.601Z,77.35
2023-04-16T22:16:53.732Z,77.48
2023-04-16T22:20:00.575Z,77.81
2023-04-16T22:23:03.310Z,78.07
2023-04-16T22:26:06.348Z,78.42
2023-04-16T22:29:09.297Z,78.15
2023-04-16T22:32:12.248Z,78.17
2023-04-16T22:35:15.064Z,77.87
2023-04-16T22:38:17.966Z,77.53
2023-04-16T22:41:21.286Z,77.52
2023-04-16T22:44:24.090Z,77.55
2023-04-16T22:47:26.872Z,77.50
2023-04-16T22:50:31.557Z,77.66
2023-04-16T22:53:35.014Z,78.05
2023-04-16T22:56:39.068Z,77.99
2023-04-16T22:59:42.040Z,78.07
2023-04-16T23:02:45.365Z,77.87
2023-04-16T23:05:49.297Z,78.12
2023-04-16T23:08:52.308Z,77.99
2023-04-16T23:11:55.932Z,78.33
2023-04-16T23:15:00.817Z,78.26
2023-04-16T23:18:03.722Z,78.81
2023-04-16T23:21:06.520Z,78.39
2023-04-16T23:24:09.551Z,78.12
2023-04-16T23:27:12.322Z,78.00
2023-04-16T23:30:15.230Z,78.44
2023-04-16T23:33:18.004Z,78.19
2023-04-16T23:36:20.886Z,77.92
2023-04-16T23:39:24.166Z,77.74
2023-04-16T23:42:27.021Z,77.19
2023-04-16T23:45:29.764Z,77.65
2023-04-16T23:48:32.897Z,77.05
2023-04-16T23:51:35.719Z,76.90
2023-04-16T23:54:38.543Z,76.93
2023-04-16T23:57:41.225Z,76.81
